首页
METAR-TAF:

METAR-TAF

机场 :

大马士革国际机场

大马士革, 叙利亚

纬度: 33-25N, 经度: 036-31E, 海拔: 608米

当前天气观测

该预报发布于45分钟前的08:00 UTC
风速6节,风向西转西南
温度 31°C
湿度 24%
气压 1008 hPa
能见度10公里或以上
1500米以下无云,无积雨云

METAR: OSDI 140800Z 25006KT CAVOK 31/08 Q1008

时间: 11:45 (08:45 UTC)

预报

该预报发布于3小时和45分钟前的05:00 UTC
预报有效从14日的 06点(UTC)到 15日的 12点(UTC)
风速15节,风向南转西南
能见度10公里或以上
1500米以下无云,无积雨云
短暂存在
从 14日的 09点(UTC)到 14日的 18点(UTC)
风速15节,风向西转西南,有时为25节阵风
能见度10公里或以上
少量云层高于3000英尺

TAF: OSDI 140500Z 1406/1512 20015KT CAVOK TEMPO 1409/1418 25015G25KT 9999 FEW030

超过4000个机场的气象观测和天气预报(METAR&TAF报告)。

可查询的气象台以黄色和红色小点在地图上表示。

将鼠标移到小点上方,可查看气象台名称。

然后点击查看天气观测和预报。

如需切换地图:点击带黑十字的绿色按钮放大地图;点击带横线的绿色按钮缩小地图;或者点击绿色箭头查看邻近地区的地图。


METAR-TAF: